This is the latest recevied weather packets stored in our database for station/object OK1PNK-5. If no packets are shown the sender has not sent any weather packets the latest 10 day(s).
| Time | Temp. | Humidity | Pressure | Rain* | Wind** | Luminosity | Snow |
|---|---|---|---|---|---|---|---|
| 1777563142 | 16.11° C | 20% | 986.6 hPa | 0 mm | - | - | - |
| 1777561343 | 16.11° C | 20% | 986.6 hPa | 0 mm | - | - | - |
| 1777555943 | 16.11° C | 18% | 987.5 hPa | 0 mm | - | - | - |
| 1777545142 | 13.33° C | 23% | 988.6 hPa | 0 mm | - | - | - |
| 1777544542 | 12.78° C | 25% | 988.7 hPa | 0 mm | - | - | - |
| 1777543942 | 12.78° C | 25% | 988.8 hPa | 0 mm | - | - | - |
| 1777541542 | 10.56° C | 30% | 989.3 hPa | 0 mm | - | - | - |
| 1777540942 | 10.56° C | 30% | 989.3 hPa | 0 mm | - | - | - |
| 1777540342 | 10.56° C | 30% | 989.3 hPa | 0 mm | - | - | - |
| 1777537342 | 9.44° C | 33% | 989.5 hPa | 0 mm | - | - | - |
| 1777536142 | 8.33° C | 33% | 989.4 hPa | 0 mm | - | - | - |
| 1777534342 | 7.22° C | 37% | 989.5 hPa | 0 mm | - | - | - |
| 1777392141 | 19.44° C | 24% | 977.4 hPa | 0 mm | - | - | - |
| 1777387000 | 20° C | 24% | 977.6 hPa | 0 mm | - | - | - |
| 1777385799 | 19.44° C | 24% | 977.9 hPa | 0 mm | - | - | - |
| 1777385200 | 19.44° C | 25% | 977.9 hPa | 0 mm | - | - | - |
| 1777383399 | 19.44° C | 23% | 978.3 hPa | 0 mm | - | - | - |
| 1777382799 | 19.44° C | 23% | 978.3 hPa | 0 mm | - | - | - |
| 1777382199 | 19.44° C | 23% | 978.3 hPa | 0 mm | - | - | - |
| 1777379199 | 18.89° C | 25% | 978.7 hPa | 0 mm | - | - | - |
| 1777378601 | 18.89° C | 25% | 978.7 hPa | 0 mm | - | - | - |
| 1777376199 | 17.78° C | 29% | 979 hPa | 0 mm | - | - | - |
| 1777372599 | 17.78° C | 32% | 979 hPa | 0 mm | - | - | - |
| 1777371999 | 17.22° C | 33% | 979 hPa | 0 mm | - | - | - |
| 1777371399 | 16.67° C | 34% | 979.1 hPa | 0 mm | - | - | - |
* Rain latest hour (hover to see other rain measurements)
** Current wind speed in m/s (hover to see current wind gust speed)